createdAt,value
2022-09-18T00:01:35.195Z,100456.38
2022-09-18T00:04:05.158Z,100452.25
2022-09-18T00:06:35.053Z,100444.41
2022-09-18T00:09:05.810Z,100457.03
2022-09-18T00:11:37.897Z,100444.94
2022-09-18T00:14:10.885Z,100448.22
2022-09-18T00:16:39.544Z,100444.88
2022-09-18T00:19:07.578Z,100449.63
2022-09-18T00:21:37.282Z,100454.84
2022-09-18T00:24:06.670Z,100452.63
2022-09-18T00:26:35.453Z,100451.88
2022-09-18T00:29:05.585Z,100450.16
2022-09-18T00:31:36.156Z,100453.63
2022-09-18T00:34:06.053Z,100453.53
2022-09-18T00:36:35.184Z,100456.13
2022-09-18T00:39:03.666Z,100455.13
2022-09-18T00:41:33.861Z,100460.53
2022-09-18T00:44:32.382Z,100455.44
2022-09-18T00:47:07.879Z,100456.00
2022-09-18T00:49:37.946Z,100457.75
2022-09-18T00:52:06.275Z,100453.69
2022-09-18T00:54:37.318Z,100452.59
2022-09-18T00:57:08.852Z,100446.34
2022-09-18T00:59:38.896Z,100453.19
2022-09-18T01:02:07.353Z,100457.59
2022-09-18T01:04:35.249Z,100460.91
2022-09-18T01:07:11.466Z,100455.88
2022-09-18T01:09:48.223Z,100453.63
2022-09-18T01:12:28.794Z,100458.78
2022-09-18T01:15:04.828Z,100469.84
2022-09-18T01:17:40.004Z,100468.88
2022-09-18T01:20:28.055Z,100473.34
2022-09-18T01:23:14.927Z,100474.03
2022-09-18T01:25:57.027Z,100466.81
2022-09-18T01:28:32.847Z,100467.91
2022-09-18T01:31:06.836Z,100473.91
2022-09-18T01:33:43.080Z,100469.47
2022-09-18T01:36:16.380Z,100460.53
2022-09-18T01:38:50.215Z,100468.38
2022-09-18T01:41:24.681Z,100458.09
2022-09-18T01:43:59.781Z,100458.97
2022-09-18T01:46:27.878Z,100468.38
2022-09-18T01:49:00.092Z,100457.22
2022-09-18T01:51:40.699Z,100464.63
2022-09-18T01:54:15.581Z,100454.47
2022-09-18T01:56:47.147Z,100456.03
2022-09-18T01:59:22.897Z,100452.28
2022-09-18T02:02:03.921Z,100462.00
2022-09-18T02:04:39.697Z,100462.59
2022-09-18T02:07:19.331Z,100465.34
2022-09-18T02:09:48.388Z,100462.59
2022-09-18T02:12:20.568Z,100457.56
2022-09-18T02:14:56.494Z,100458.97
2022-09-18T02:17:50.813Z,100450.22
2022-09-18T02:20:22.016Z,100449.78
2022-09-18T02:22:57.047Z,100448.53
2022-09-18T02:25:28.471Z,100441.75
2022-09-18T02:27:58.006Z,100442.09
2022-09-18T02:30:28.848Z,100442.75
2022-09-18T02:32:58.696Z,100442.09
2022-09-18T02:35:37.502Z,100440.69
2022-09-18T02:38:16.295Z,100444.06
2022-09-18T02:40:55.945Z,100433.72
2022-09-18T02:43:38.174Z,100427.34
2022-09-18T02:46:18.287Z,100433.63
2022-09-18T02:48:53.025Z,100429.31
2022-09-18T02:51:31.766Z,100438.22
2022-09-18T02:54:05.138Z,100431.28
2022-09-18T02:56:39.535Z,100432.69
2022-09-18T02:59:12.907Z,100433.22
2022-09-18T03:01:45.604Z,100436.81
2022-09-18T03:04:16.801Z,100427.25
2022-09-18T03:06:57.358Z,100430.13
2022-09-18T03:09:26.345Z,100436.81
2022-09-18T03:11:55.825Z,100424.78
2022-09-18T03:14:23.842Z,100425.66
2022-09-18T03:16:53.011Z,100422.59
2022-09-18T03:19:20.900Z,100421.16
2022-09-18T03:21:51.040Z,100421.03
2022-09-18T03:24:19.859Z,100413.63
2022-09-18T03:26:49.582Z,100412.78
2022-09-18T03:29:17.709Z,100410.13
2022-09-18T03:31:45.770Z,100411.78
2022-09-18T03:34:15.103Z,100419.78
2022-09-18T03:36:47.074Z,100416.97
2022-09-18T03:39:16.466Z,100404.34
2022-09-18T03:41:45.241Z,100418.53
2022-09-18T03:44:13.529Z,100415.75
2022-09-18T03:46:43.336Z,100417.44
2022-09-18T03:49:11.499Z,100426.03
2022-09-18T03:51:42.949Z,100422.44
2022-09-18T03:54:10.837Z,100427.13
2022-09-18T03:57:05.097Z,100420.66
2022-09-18T03:59:42.092Z,100409.09
2022-09-18T04:02:27.174Z,100417.66
2022-09-18T04:05:15.324Z,100422.13
2022-09-18T04:08:05.141Z,100415.09
2022-09-18T04:10:54.354Z,100418.56
2022-09-18T04:13:22.230Z,100416.06
2022-09-18T04:15:50.803Z,100411.47
2022-09-18T04:18:20.774Z,100413.28
2022-09-18T04:20:48.796Z,100420.28
2022-09-18T04:23:18.469Z,100411.22
2022-09-18T04:25:46.893Z,100410.09
2022-09-18T04:28:14.763Z,100412.44
2022-09-18T04:30:47.617Z,100411.75
2022-09-18T04:33:16.145Z,100412.44
2022-09-18T04:35:44.485Z,100418.69
2022-09-18T04:38:12.618Z,100416.75
2022-09-18T04:40:42.517Z,100420.13
2022-09-18T04:43:11.595Z,100417.91
2022-09-18T04:45:40.985Z,100416.22
2022-09-18T04:48:08.838Z,100421.97
2022-09-18T04:50:37.073Z,100417.78
2022-09-18T04:53:16.608Z,100416.09
2022-09-18T04:55:48.876Z,100418.88
2022-09-18T04:58:18.761Z,100410.38
2022-09-18T05:00:51.318Z,100418.44
2022-09-18T05:03:22.418Z,100420.38
2022-09-18T05:05:54.963Z,100424.16
2022-09-18T05:08:23.405Z,100417.53
2022-09-18T05:10:53.107Z,100415.31
2022-09-18T05:13:23.978Z,100411.41
2022-09-18T05:16:09.162Z,100422.03
2022-09-18T05:18:37.387Z,100420.66
2022-09-18T05:21:06.989Z,100421.91
2022-09-18T05:23:35.689Z,100431.78
2022-09-18T05:26:05.027Z,100421.13
2022-09-18T05:28:33.655Z,100412.63
2022-09-18T05:31:05.003Z,100417.47
2022-09-18T05:33:41.158Z,100420.38
2022-09-18T05:36:09.397Z,100429.97
2022-09-18T05:38:39.836Z,100430.53
2022-09-18T05:41:11.025Z,100420.22
2022-09-18T05:43:39.119Z,100421.56
2022-09-18T05:46:10.762Z,100424.78
2022-09-18T05:48:49.433Z,100427.41
2022-09-18T05:51:17.417Z,100430.34
2022-09-18T05:53:48.304Z,100431.44
2022-09-18T05:56:37.796Z,100427.06
2022-09-18T05:59:05.631Z,100425.88
2022-09-18T06:01:33.866Z,100426.72
2022-09-18T06:04:18.298Z,100423.91
2022-09-18T06:06:56.779Z,100424.16
2022-09-18T06:09:24.666Z,100430.19
2022-09-18T06:11:53.830Z,100415.97
2022-09-18T06:14:23.100Z,100424.47
2022-09-18T06:16:51.132Z,100429.59
2022-09-18T06:19:19.035Z,100425.88
2022-09-18T06:21:49.227Z,100431.72
2022-09-18T06:24:19.658Z,100437.00
2022-09-18T06:27:09.179Z,100437.47
2022-09-18T06:29:36.937Z,100435.09
2022-09-18T06:32:10.674Z,100431.25
2022-09-18T06:34:40.310Z,100435.16
2022-09-18T06:37:12.914Z,100431.84
2022-09-18T06:39:41.037Z,100442.13
2022-09-18T06:42:11.647Z,100437.72
2022-09-18T06:44:58.023Z,100441.31
2022-09-18T06:47:28.396Z,100439.41
2022-09-18T06:49:56.798Z,100436.59
2022-09-18T06:52:24.746Z,100435.97
2022-09-18T06:54:56.065Z,100443.31
2022-09-18T06:57:33.119Z,100437.31
2022-09-18T07:00:05.014Z,100438.13
2022-09-18T07:02:38.096Z,100437.72
2022-09-18T07:05:27.605Z,100436.78
2022-09-18T07:07:55.504Z,100444.50
2022-09-18T07:10:24.872Z,100436.09
2022-09-18T07:12:58.055Z,100443.47
2022-09-18T07:15:26.881Z,100445.44
2022-09-18T07:17:57.007Z,100451.59
2022-09-18T07:20:25.229Z,100446.00
2022-09-18T07:22:54.128Z,100453.78
2022-09-18T07:25:23.505Z,100455.91
2022-09-18T07:27:53.771Z,100451.47
2022-09-18T07:30:23.666Z,100449.50
2022-09-18T07:32:54.279Z,100453.28
2022-09-18T07:35:26.739Z,100459.16
2022-09-18T07:37:58.966Z,100453.16
2022-09-18T07:40:40.236Z,100454.41
2022-09-18T07:43:12.144Z,100452.88
2022-09-18T07:45:49.025Z,100461.09
2022-09-18T07:48:17.398Z,100460.53
2022-09-18T07:50:49.164Z,100460.84
2022-09-18T07:53:18.696Z,100450.94
2022-09-18T07:55:49.677Z,100458.19
2022-09-18T07:58:17.610Z,100457.63
2022-09-18T08:00:53.143Z,100455.09
2022-09-18T08:03:22.866Z,100461.78
2022-09-18T08:06:17.674Z,100465.69
2022-09-18T08:08:56.035Z,100468.78
2022-09-18T08:11:56.465Z,100471.81
2022-09-18T08:14:31.172Z,100470.69
2022-09-18T08:17:19.899Z,100472.94
2022-09-18T08:20:09.068Z,100473.47
2022-09-18T08:22:55.185Z,100474.34
2022-09-18T08:25:27.355Z,100472.66
2022-09-18T08:27:55.684Z,100473.47
2022-09-18T08:30:32.992Z,100473.34
2022-09-18T08:33:07.266Z,100484.38
2022-09-18T08:35:35.474Z,100476.00
2022-09-18T08:38:16.529Z,100471.81
2022-09-18T08:41:13.755Z,100476.28
2022-09-18T08:43:50.181Z,100467.63
2022-09-18T08:46:22.555Z,100460.13
2022-09-18T08:49:02.554Z,100455.53
2022-09-18T08:51:38.754Z,100450.25
2022-09-18T08:54:21.370Z,100455.38
2022-09-18T08:57:17.924Z,100449.22
2022-09-18T09:00:03.516Z,100452.03
2022-09-18T09:02:39.395Z,100458.44
2022-09-18T09:05:12.408Z,100462.47
2022-09-18T09:08:04.395Z,100458.28
2022-09-18T09:10:43.802Z,100463.00
2022-09-18T09:13:33.848Z,100453.94
2022-09-18T09:16:09.232Z,100454.28
2022-09-18T09:18:53.451Z,100448.13
2022-09-18T09:21:25.628Z,100452.00
2022-09-18T09:24:09.091Z,100449.16
2022-09-18T09:26:58.025Z,100449.16
2022-09-18T09:29:46.780Z,100441.94
2022-09-18T09:32:41.367Z,100443.28
2022-09-18T09:35:33.625Z,100434.53
2022-09-18T09:38:38.366Z,100433.31
2022-09-18T09:41:14.508Z,100442.56
2022-09-18T09:43:48.482Z,100446.78
2022-09-18T09:46:23.044Z,100445.00
2022-09-18T09:48:58.040Z,100432.97
2022-09-18T09:51:32.100Z,100426.38
2022-09-18T09:54:04.022Z,100422.47
2022-09-18T09:56:43.994Z,100429.56
2022-09-18T09:59:23.534Z,100423.41
2022-09-18T10:02:37.443Z,100436.06
2022-09-18T10:05:18.235Z,100432.06
2022-09-18T10:07:51.030Z,100428.91
2022-09-18T10:10:30.856Z,100429.44
2022-09-18T10:13:04.671Z,100434.53
2022-09-18T10:15:38.698Z,100427.53
2022-09-18T10:18:17.602Z,100442.03
2022-09-18T10:20:48.170Z,100435.06
2022-09-18T10:23:25.734Z,100434.44
2022-09-18T10:26:01.792Z,100434.97
2022-09-18T10:28:32.958Z,100432.72
2022-09-18T10:31:06.439Z,100427.91
2022-09-18T10:33:41.602Z,100424.59
2022-09-18T10:36:25.851Z,100409.75
2022-09-18T10:38:55.321Z,100406.63
2022-09-18T10:41:43.139Z,100399.81
2022-09-18T10:44:25.445Z,100407.84
2022-09-18T10:47:04.842Z,100406.47
2022-09-18T10:49:41.761Z,100403.47
2022-09-18T10:52:31.352Z,100399.88
2022-09-18T10:55:18.448Z,100394.50
2022-09-18T10:58:14.742Z,100392.47
2022-09-18T11:00:56.351Z,100413.03
2022-09-18T11:03:41.582Z,100404.28
2022-09-18T11:06:19.480Z,100404.22
2022-09-18T11:08:50.356Z,100402.53
2022-09-18T11:11:30.633Z,100408.16
2022-09-18T11:14:06.744Z,100398.69
2022-09-18T11:16:50.806Z,100401.50
2022-09-18T11:19:27.598Z,100404.22
2022-09-18T11:22:03.368Z,100409.66
2022-09-18T11:24:46.617Z,100416.34
2022-09-18T11:27:21.222Z,100411.66
2022-09-18T11:29:51.409Z,100401.56
2022-09-18T11:32:22.065Z,100407.19
2022-09-18T11:34:53.938Z,100392.00
2022-09-18T11:37:31.888Z,100391.53
2022-09-18T11:40:06.021Z,100398.22
2022-09-18T11:42:43.091Z,100393.81
2022-09-18T11:45:29.609Z,100381.91
2022-09-18T11:48:06.739Z,100392.44
2022-09-18T11:50:38.478Z,100389.78
2022-09-18T11:53:15.992Z,100382.97
2022-09-18T11:55:49.675Z,100374.78
2022-09-18T11:58:25.052Z,100374.09
2022-09-18T12:01:06.181Z,100374.09
2022-09-18T12:03:40.581Z,100371.16
2022-09-18T12:06:15.348Z,100358.16
2022-09-18T12:08:49.821Z,100364.00
2022-09-18T12:11:26.177Z,100356.56
2022-09-18T12:14:01.514Z,100367.72
2022-09-18T12:16:43.991Z,100377.59
2022-09-18T12:19:20.807Z,100362.25
2022-09-18T12:21:56.975Z,100368.03
2022-09-18T12:24:25.584Z,100370.22
2022-09-18T12:27:09.088Z,100346.41
2022-09-18T12:30:01.783Z,100355.06
2022-09-18T12:32:54.421Z,100354.09
2022-09-18T12:35:32.129Z,100361.88
2022-09-18T12:38:13.226Z,100356.94
2022-09-18T12:41:09.033Z,100351.03
2022-09-18T12:43:52.664Z,100360.81
2022-09-18T12:46:45.423Z,100358.84
2022-09-18T12:49:29.448Z,100353.00
2022-09-18T12:52:07.649Z,100350.41
2022-09-18T12:54:48.940Z,100346.47
2022-09-18T12:57:30.648Z,100346.00
2022-09-18T13:00:04.805Z,100354.75
2022-09-18T13:02:42.254Z,100351.72
2022-09-18T13:05:18.064Z,100341.41
2022-09-18T13:07:49.705Z,100354.59
2022-09-18T13:10:21.753Z,100330.31
2022-09-18T13:12:57.245Z,100334.63
2022-09-18T13:15:29.300Z,100342.44
2022-09-18T13:18:10.686Z,100328.19
2022-09-18T13:20:44.200Z,100337.81
2022-09-18T13:23:19.015Z,100334.63
2022-09-18T13:25:49.365Z,100335.09
2022-09-18T13:28:20.808Z,100332.75
2022-09-18T13:30:51.951Z,100337.56
2022-09-18T13:33:24.520Z,100322.75
2022-09-18T13:35:57.616Z,100328.88
2022-09-18T13:38:28.153Z,100319.69
2022-09-18T13:41:03.791Z,100318.03
2022-09-18T13:43:46.444Z,100332.44
2022-09-18T13:46:39.403Z,100329.03
2022-09-18T13:49:19.862Z,100337.38
2022-09-18T13:51:49.054Z,100338.44
2022-09-18T13:54:29.171Z,100322.38
2022-09-18T13:57:19.740Z,100321.41
2022-09-18T13:59:51.324Z,100322.31
2022-09-18T14:02:38.109Z,100309.34
2022-09-18T14:05:31.205Z,100321.31
2022-09-18T14:08:35.985Z,100323.13
2022-09-18T14:11:16.389Z,100318.28
2022-09-18T14:13:52.389Z,100312.84
2022-09-18T14:16:41.290Z,100318.16
2022-09-18T14:19:30.885Z,100331.03
2022-09-18T14:22:00.607Z,100326.63
2022-09-18T14:24:56.196Z,100315.16
2022-09-18T14:27:43.792Z,100324.31
2022-09-18T14:30:30.903Z,100312.72
2022-09-18T14:33:05.373Z,100325.38
2022-09-18T14:35:37.965Z,100313.91
2022-09-18T14:38:17.924Z,100328.22
2022-09-18T14:40:58.543Z,100315.97
2022-09-18T14:43:26.882Z,100313.75
2022-09-18T14:45:55.762Z,100311.84
2022-09-18T14:48:30.111Z,100309.88
2022-09-18T14:51:06.116Z,100315.88
2022-09-18T14:53:44.278Z,100311.84
2022-09-18T14:56:18.299Z,100312.25
2022-09-18T14:58:47.780Z,100318.28
2022-09-18T15:01:18.238Z,100304.50
2022-09-18T15:03:49.899Z,100299.53
2022-09-18T15:06:21.075Z,100314.06
2022-09-18T15:08:54.258Z,100302.69
2022-09-18T15:11:34.713Z,100300.44
2022-09-18T15:14:23.850Z,100311.25
2022-09-18T15:16:56.167Z,100304.22
2022-09-18T15:19:24.209Z,100320.19
2022-09-18T15:21:52.671Z,100303.38
2022-09-18T15:24:21.017Z,100293.91
2022-09-18T15:26:56.106Z,100301.19
2022-09-18T15:29:29.179Z,100292.63
2022-09-18T15:31:57.654Z,100287.91
2022-09-18T15:34:27.705Z,100286.25
2022-09-18T15:37:00.599Z,100287.25
2022-09-18T15:39:31.631Z,100306.19
2022-09-18T15:42:17.412Z,100282.94
2022-09-18T15:45:22.771Z,100281.88
2022-09-18T15:47:51.159Z,100285.66
2022-09-18T15:50:41.632Z,100276.63
2022-09-18T15:53:30.613Z,100266.63
2022-09-18T15:56:01.867Z,100280.47
2022-09-18T15:58:37.170Z,100277.31
2022-09-18T16:01:14.909Z,100281.16
2022-09-18T16:03:43.441Z,100267.84
2022-09-18T16:06:23.124Z,100288.44
2022-09-18T16:08:55.013Z,100280.72
2022-09-18T16:11:42.664Z,100292.53
2022-09-18T16:14:47.267Z,100278.06
2022-09-18T16:17:39.015Z,100286.22
2022-09-18T16:20:38.847Z,100273.63
2022-09-18T16:23:20.815Z,100273.81
2022-09-18T16:26:05.863Z,100277.22
2022-09-18T16:28:35.947Z,100271.31
2022-09-18T16:31:05.592Z,100281.91
2022-09-18T16:33:34.884Z,100269.34
2022-09-18T16:36:06.559Z,100272.50
2022-09-18T16:38:34.941Z,100261.16
2022-09-18T16:41:03.420Z,100270.38
2022-09-18T16:43:31.419Z,100270.00
2022-09-18T16:45:59.185Z,100265.69
2022-09-18T16:48:29.296Z,100263.47
2022-09-18T16:50:57.129Z,100263.28
2022-09-18T16:53:25.127Z,100267.41
2022-09-18T16:55:56.672Z,100258.25
2022-09-18T16:58:27.794Z,100265.88
2022-09-18T17:00:55.845Z,100262.69
2022-09-18T17:03:28.409Z,100262.03
2022-09-18T17:05:56.338Z,100264.72
2022-09-18T17:08:24.352Z,100267.63
2022-09-18T17:10:52.219Z,100268.38
2022-09-18T17:13:22.700Z,100264.75
2022-09-18T17:15:52.826Z,100258.31
2022-09-18T17:18:20.785Z,100259.69
2022-09-18T17:20:49.913Z,100264.97
2022-09-18T17:23:17.969Z,100270.88
2022-09-18T17:25:45.893Z,100270.41
2022-09-18T17:28:17.619Z,100283.84
2022-09-18T17:30:45.814Z,100285.69
2022-09-18T17:33:17.482Z,100284.19
2022-09-18T17:35:47.683Z,100287.00
2022-09-18T17:38:17.308Z,100288.19
2022-09-18T17:40:56.685Z,100290.22
2022-09-18T17:43:25.500Z,100285.44
2022-09-18T17:45:57.388Z,100289.91
2022-09-18T17:48:29.331Z,100296.63
2022-09-18T17:50:58.667Z,100285.63
2022-09-18T17:53:28.821Z,100284.97
2022-09-18T17:55:59.967Z,100290.81
2022-09-18T17:58:28.826Z,100287.75
2022-09-18T18:00:57.228Z,100292.75
2022-09-18T18:03:26.694Z,100289.69
2022-09-18T18:05:57.605Z,100278.94
2022-09-18T18:08:27.560Z,100278.97
2022-09-18T18:10:55.957Z,100280.66
2022-09-18T18:13:24.311Z,100277.72
2022-09-18T18:15:53.734Z,100276.19
2022-09-18T18:18:21.635Z,100281.72
2022-09-18T18:20:54.052Z,100272.13
2022-09-18T18:23:22.005Z,100276.72
2022-09-18T18:25:51.240Z,100277.88
2022-09-18T18:28:23.296Z,100280.22
2022-09-18T18:31:02.662Z,100287.47
2022-09-18T18:33:31.961Z,100280.53
2022-09-18T18:36:08.344Z,100284.97
2022-09-18T18:38:36.369Z,100284.84
2022-09-18T18:41:06.667Z,100291.34
2022-09-18T18:43:40.135Z,100312.94
2022-09-18T18:46:09.319Z,100320.28
2022-09-18T18:48:40.303Z,100327.09
2022-09-18T18:51:10.429Z,100335.31
2022-09-18T18:53:39.000Z,100337.69
2022-09-18T18:56:09.872Z,100341.41
2022-09-18T18:58:40.500Z,100350.16
2022-09-18T19:01:10.697Z,100356.38
2022-09-18T19:03:42.973Z,100358.84
2022-09-18T19:06:11.134Z,100365.47
2022-09-18T19:08:41.984Z,100361.44
2022-09-18T19:11:11.959Z,100361.44
2022-09-18T19:13:43.059Z,100362.44
2022-09-18T19:16:11.707Z,100358.06
2022-09-18T19:18:40.096Z,100375.00
2022-09-18T19:21:08.299Z,100369.56
2022-09-18T19:23:36.923Z,100377.19
2022-09-18T19:26:05.000Z,100384.94
2022-09-18T19:28:34.273Z,100390.22
2022-09-18T19:31:04.994Z,100391.50
2022-09-18T19:33:34.000Z,100389.06
2022-09-18T19:36:06.062Z,100385.97
2022-09-18T19:38:36.843Z,100391.94
2022-09-18T19:41:10.227Z,100398.19
2022-09-18T19:43:40.012Z,100393.50
2022-09-18T19:46:11.187Z,100404.38
2022-09-18T19:48:39.481Z,100402.16
2022-09-18T19:51:08.935Z,100406.28
2022-09-18T19:53:37.503Z,100399.63
2022-09-18T19:56:22.627Z,100402.25
2022-09-18T19:58:58.414Z,100403.66
2022-09-18T20:01:26.315Z,100401.72
2022-09-18T20:03:56.530Z,100400.31
2022-09-18T20:06:24.449Z,100399.34
2022-09-18T20:08:52.859Z,100399.84
2022-09-18T20:11:20.588Z,100402.50
2022-09-18T20:13:50.922Z,100399.84
2022-09-18T20:16:21.084Z,100389.28
2022-09-18T20:18:51.227Z,100377.47
2022-09-18T20:21:20.338Z,100379.25
2022-09-18T20:23:48.603Z,100383.13
2022-09-18T20:26:19.380Z,100377.84
2022-09-18T20:28:49.546Z,100385.19
2022-09-18T20:31:17.975Z,100385.78
2022-09-18T20:33:47.501Z,100392.13
2022-09-18T20:36:15.735Z,100393.22
2022-09-18T20:38:44.438Z,100400.34
2022-09-18T20:41:14.801Z,100393.53
2022-09-18T20:43:44.104Z,100381.31
2022-09-18T20:46:15.675Z,100347.28
2022-09-18T20:48:46.358Z,100369.59
2022-09-18T20:51:18.242Z,100381.91
2022-09-18T20:53:47.076Z,100378.88
2022-09-18T20:56:16.306Z,100383.28
2022-09-18T20:58:44.226Z,100373.72
2022-09-18T21:01:14.371Z,100370.50
2022-09-18T21:03:44.823Z,100388.06
2022-09-18T21:06:22.889Z,100389.31
2022-09-18T21:08:55.202Z,100387.28
2022-09-18T21:11:25.039Z,100388.44
2022-09-18T21:13:54.423Z,100394.59
2022-09-18T21:16:23.139Z,100404.41
2022-09-18T21:18:53.294Z,100408.00
2022-09-18T21:21:22.698Z,100401.31
2022-09-18T21:23:58.446Z,100401.81
2022-09-18T21:26:31.512Z,100398.56
2022-09-18T21:29:01.196Z,100398.84
2022-09-18T21:31:30.321Z,100397.53
2022-09-18T21:33:59.110Z,100389.03
2022-09-18T21:36:28.872Z,100385.00
2022-09-18T21:38:56.819Z,100378.97
2022-09-18T21:41:26.143Z,100384.66
2022-09-18T21:43:57.390Z,100397.25
2022-09-18T21:46:25.285Z,100394.47
2022-09-18T21:48:56.709Z,100398.22
2022-09-18T21:51:24.493Z,100407.06
2022-09-18T21:53:53.704Z,100406.69
2022-09-18T21:56:21.736Z,100405.97
2022-09-18T21:58:50.216Z,100415.44
2022-09-18T22:01:20.264Z,100411.84
2022-09-18T22:03:53.421Z,100417.13
2022-09-18T22:06:25.875Z,100409.81
2022-09-18T22:08:56.980Z,100414.63
2022-09-18T22:11:26.597Z,100424.16
2022-09-18T22:13:55.458Z,100421.25
2022-09-18T22:16:24.210Z,100417.19
2022-09-18T22:18:53.060Z,100420.78
2022-09-18T22:21:23.518Z,100417.19
2022-09-18T22:23:53.292Z,100413.88
2022-09-18T22:26:23.450Z,100418.28
2022-09-18T22:28:53.329Z,100420.66
2022-09-18T22:31:22.291Z,100423.53
2022-09-18T22:33:54.802Z,100416.34
2022-09-18T22:36:22.986Z,100418.53
2022-09-18T22:38:50.774Z,100414.47
2022-09-18T22:41:19.467Z,100416.50
2022-09-18T22:43:48.746Z,100423.41
2022-09-18T22:46:17.971Z,100427.66
2022-09-18T22:48:45.880Z,100422.53
2022-09-18T22:51:16.273Z,100426.56
2022-09-18T22:53:50.841Z,100430.31
2022-09-18T22:56:20.457Z,100429.69
2022-09-18T22:58:51.019Z,100442.03
2022-09-18T23:01:21.809Z,100443.69
2022-09-18T23:03:53.464Z,100451.69
2022-09-18T23:06:25.382Z,100452.78
2022-09-18T23:08:53.646Z,100459.47
2022-09-18T23:11:23.370Z,100455.28
2022-09-18T23:13:55.033Z,100467.53
2022-09-18T23:16:24.428Z,100455.91
2022-09-18T23:18:54.232Z,100453.50
2022-09-18T23:21:23.096Z,100460.69
2022-09-18T23:23:51.348Z,100462.13
2022-09-18T23:26:23.164Z,100456.47
2022-09-18T23:28:53.914Z,100456.28
2022-09-18T23:31:25.572Z,100457.63
2022-09-18T23:33:55.051Z,100458.97
2022-09-18T23:36:27.664Z,100460.88
2022-09-18T23:38:56.942Z,100447.22
2022-09-18T23:41:25.961Z,100456.19
2022-09-18T23:43:55.430Z,100450.41
2022-09-18T23:46:24.618Z,100453.69
2022-09-18T23:48:55.678Z,100453.34
2022-09-18T23:51:24.877Z,100462.66
2022-09-18T23:53:53.511Z,100458.25
2022-09-18T23:56:23.480Z,100454.47
2022-09-18T23:58:55.623Z,100460.69
